sensor_id;sensor_type;location;lat;lon;timestamp;temperature;humidity
435;DHT22;204;48.942;9.256;2022-08-21T00:00:53;15.60;1.00
435;DHT22;204;48.942;9.256;2022-08-21T00:03:19;15.60;1.00
435;DHT22;204;48.942;9.256;2022-08-21T00:05:47;15.50;1.00
435;DHT22;204;48.942;9.256;2022-08-21T00:08:15;15.50;1.00
435;DHT22;204;48.942;9.256;2022-08-21T00:10:42;15.50;1.00
435;DHT22;204;48.942;9.256;2022-08-21T00:13:09;15.40;1.00
435;DHT22;204;48.942;9.256;2022-08-21T00:15:36;15.30;1.00
435;DHT22;204;48.942;9.256;2022-08-21T00:18:03;15.30;1.00
435;DHT22;204;48.942;9.256;2022-08-21T00:20:29;15.30;1.00
435;DHT22;204;48.942;9.256;2022-08-21T00:22:55;15.30;1.00
435;DHT22;204;48.942;9.256;2022-08-21T00:25:20;15.30;1.00
435;DHT22;204;48.942;9.256;2022-08-21T00:27:46;15.20;1.00
435;DHT22;204;48.942;9.256;2022-08-21T00:30:22;15.20;1.00
435;DHT22;204;48.942;9.256;2022-08-21T00:32:48;15.10;1.00
435;DHT22;204;48.942;9.256;2022-08-21T00:35:16;15.10;1.00
435;DHT22;204;48.942;9.256;2022-08-21T00:37:43;15.10;1.00
435;DHT22;204;48.942;9.256;2022-08-21T00:40:13;15.10;1.00
435;DHT22;204;48.942;9.256;2022-08-21T00:42:39;15.10;1.00
435;DHT22;204;48.942;9.256;2022-08-21T00:45:05;15.10;1.00
435;DHT22;204;48.942;9.256;2022-08-21T00:47:32;15.10;1.00
435;DHT22;204;48.942;9.256;2022-08-21T00:49:57;15.00;1.00
435;DHT22;204;48.942;9.256;2022-08-21T00:52:28;15.00;1.00
435;DHT22;204;48.942;9.256;2022-08-21T00:54:55;15.00;1.00
435;DHT22;204;48.942;9.256;2022-08-21T00:57:29;14.90;1.00
435;DHT22;204;48.942;9.256;2022-08-21T00:59:57;14.90;1.00
435;DHT22;204;48.942;9.256;2022-08-21T01:02:23;14.80;1.00
435;DHT22;204;48.942;9.256;2022-08-21T01:04:49;14.80;1.00
435;DHT22;204;48.942;9.256;2022-08-21T01:07:15;14.80;1.00
435;DHT22;204;48.942;9.256;2022-08-21T01:09:42;14.80;1.00
435;DHT22;204;48.942;9.256;2022-08-21T01:12:08;14.80;1.00
435;DHT22;204;48.942;9.256;2022-08-21T01:14:34;14.80;1.00
435;DHT22;204;48.942;9.256;2022-08-21T01:17:01;14.70;1.00
435;DHT22;204;48.942;9.256;2022-08-21T01:19:28;14.70;1.00
435;DHT22;204;48.942;9.256;2022-08-21T01:21:55;14.70;1.00
435;DHT22;204;48.942;9.256;2022-08-21T01:24:20;14.60;1.00
435;DHT22;204;48.942;9.256;2022-08-21T01:26:46;14.60;1.00
435;DHT22;204;48.942;9.256;2022-08-21T01:31:39;14.50;1.00
435;DHT22;204;48.942;9.256;2022-08-21T01:34:05;14.50;1.00
435;DHT22;204;48.942;9.256;2022-08-21T01:36:31;14.60;1.00
435;DHT22;204;48.942;9.256;2022-08-21T01:38:57;14.50;1.00
435;DHT22;204;48.942;9.256;2022-08-21T01:41:23;14.60;1.00
435;DHT22;204;48.942;9.256;2022-08-21T01:43:49;14.60;1.00
435;DHT22;204;48.942;9.256;2022-08-21T01:46:15;14.60;1.00
435;DHT22;204;48.942;9.256;2022-08-21T01:48:41;14.60;1.00
435;DHT22;204;48.942;9.256;2022-08-21T01:51:08;14.50;1.00
435;DHT22;204;48.942;9.256;2022-08-21T01:53:35;14.60;1.00
435;DHT22;204;48.942;9.256;2022-08-21T01:56:04;14.50;1.00
435;DHT22;204;48.942;9.256;2022-08-21T01:58:29;14.50;1.00
435;DHT22;204;48.942;9.256;2022-08-21T02:00:55;14.50;1.00
435;DHT22;204;48.942;9.256;2022-08-21T02:03:21;14.50;1.00
435;DHT22;204;48.942;9.256;2022-08-21T02:05:46;14.50;1.00
435;DHT22;204;48.942;9.256;2022-08-21T02:08:12;14.40;1.00
435;DHT22;204;48.942;9.256;2022-08-21T02:10:38;14.40;1.00
435;DHT22;204;48.942;9.256;2022-08-21T02:13:04;14.50;1.00
435;DHT22;204;48.942;9.256;2022-08-21T02:15:30;14.40;1.00
435;DHT22;204;48.942;9.256;2022-08-21T02:17:59;14.40;1.00
435;DHT22;204;48.942;9.256;2022-08-21T02:20:33;14.40;1.00
435;DHT22;204;48.942;9.256;2022-08-21T02:23:00;14.40;1.00
435;DHT22;204;48.942;9.256;2022-08-21T02:25:27;14.40;1.00
435;DHT22;204;48.942;9.256;2022-08-21T02:27:54;14.40;1.00
435;DHT22;204;48.942;9.256;2022-08-21T02:30:23;14.30;1.00
435;DHT22;204;48.942;9.256;2022-08-21T02:32:49;14.30;1.00
435;DHT22;204;48.942;9.256;2022-08-21T02:35:15;14.30;1.00
435;DHT22;204;48.942;9.256;2022-08-21T02:37:59;14.20;1.00
435;DHT22;204;48.942;9.256;2022-08-21T02:40:29;14.20;1.00
435;DHT22;204;48.942;9.256;2022-08-21T02:42:56;14.10;1.00
435;DHT22;204;48.942;9.256;2022-08-21T02:45:22;14.10;1.00
435;DHT22;204;48.942;9.256;2022-08-21T02:47:53;14.10;1.00
435;DHT22;204;48.942;9.256;2022-08-21T02:50:21;14.00;1.00
435;DHT22;204;48.942;9.256;2022-08-21T02:52:48;14.00;1.00
435;DHT22;204;48.942;9.256;2022-08-21T02:55:14;14.00;1.00
435;DHT22;204;48.942;9.256;2022-08-21T02:57:40;14.00;1.00
435;DHT22;204;48.942;9.256;2022-08-21T03:00:06;14.00;1.00
435;DHT22;204;48.942;9.256;2022-08-21T03:02:33;14.00;1.00
435;DHT22;204;48.942;9.256;2022-08-21T03:05:00;14.00;1.00
435;DHT22;204;48.942;9.256;2022-08-21T03:07:26;13.90;1.00
435;DHT22;204;48.942;9.256;2022-08-21T03:09:51;13.90;1.00
435;DHT22;204;48.942;9.256;2022-08-21T03:12:17;13.90;1.00
435;DHT22;204;48.942;9.256;2022-08-21T03:14:42;13.90;1.00
435;DHT22;204;48.942;9.256;2022-08-21T03:17:09;13.90;1.00
435;DHT22;204;48.942;9.256;2022-08-21T03:19:35;13.90;1.00
435;DHT22;204;48.942;9.256;2022-08-21T03:22:00;13.80;1.00
435;DHT22;204;48.942;9.256;2022-08-21T03:24:26;13.80;1.00
435;DHT22;204;48.942;9.256;2022-08-21T03:26:51;13.80;1.00
435;DHT22;204;48.942;9.256;2022-08-21T03:29:17;13.80;1.00
435;DHT22;204;48.942;9.256;2022-08-21T03:31:43;13.80;1.00
435;DHT22;204;48.942;9.256;2022-08-21T03:34:09;13.70;1.00
435;DHT22;204;48.942;9.256;2022-08-21T03:36:35;13.80;1.00
435;DHT22;204;48.942;9.256;2022-08-21T03:39:01;13.80;1.00
435;DHT22;204;48.942;9.256;2022-08-21T03:41:26;13.80;1.00
435;DHT22;204;48.942;9.256;2022-08-21T03:43:52;13.80;1.00
435;DHT22;204;48.942;9.256;2022-08-21T03:46:17;13.80;1.00
435;DHT22;204;48.942;9.256;2022-08-21T03:48:44;13.80;1.00
435;DHT22;204;48.942;9.256;2022-08-21T03:51:10;13.70;1.00
435;DHT22;204;48.942;9.256;2022-08-21T03:53:36;13.70;1.00
435;DHT22;204;48.942;9.256;2022-08-21T03:56:02;13.70;1.00
435;DHT22;204;48.942;9.256;2022-08-21T03:58:29;13.70;1.00
435;DHT22;204;48.942;9.256;2022-08-21T04:00:58;13.70;1.00
435;DHT22;204;48.942;9.256;2022-08-21T04:03:24;13.70;1.00
435;DHT22;204;48.942;9.256;2022-08-21T04:05:50;13.70;1.00
435;DHT22;204;48.942;9.256;2022-08-21T04:08:16;13.60;1.00
435;DHT22;204;48.942;9.256;2022-08-21T04:10:45;13.60;1.00
435;DHT22;204;48.942;9.256;2022-08-21T04:13:11;13.60;1.00
435;DHT22;204;48.942;9.256;2022-08-21T04:15:37;13.60;1.00
435;DHT22;204;48.942;9.256;2022-08-21T04:18:03;13.50;1.00
435;DHT22;204;48.942;9.256;2022-08-21T04:20:29;13.60;1.00
435;DHT22;204;48.942;9.256;2022-08-21T04:22:55;13.60;1.00
435;DHT22;204;48.942;9.256;2022-08-21T04:25:24;13.60;1.00
435;DHT22;204;48.942;9.256;2022-08-21T04:27:53;13.60;1.00
435;DHT22;204;48.942;9.256;2022-08-21T04:30:19;13.60;1.00
435;DHT22;204;48.942;9.256;2022-08-21T04:32:46;13.60;1.00
435;DHT22;204;48.942;9.256;2022-08-21T04:35:13;13.60;1.00
435;DHT22;204;48.942;9.256;2022-08-21T04:37:40;13.60;1.00
435;DHT22;204;48.942;9.256;2022-08-21T04:40:06;13.50;1.00
435;DHT22;204;48.942;9.256;2022-08-21T04:42:32;13.50;1.00
435;DHT22;204;48.942;9.256;2022-08-21T04:44:58;13.50;1.00
435;DHT22;204;48.942;9.256;2022-08-21T04:47:24;13.50;1.00
435;DHT22;204;48.942;9.256;2022-08-21T04:49:50;13.50;1.00
435;DHT22;204;48.942;9.256;2022-08-21T04:52:19;13.50;1.00
435;DHT22;204;48.942;9.256;2022-08-21T04:54:47;13.50;1.00
435;DHT22;204;48.942;9.256;2022-08-21T04:57:15;13.60;1.00
435;DHT22;204;48.942;9.256;2022-08-21T04:59:45;13.60;1.00
435;DHT22;204;48.942;9.256;2022-08-21T05:02:11;13.70;1.00
435;DHT22;204;48.942;9.256;2022-08-21T05:04:43;13.70;1.00
435;DHT22;204;48.942;9.256;2022-08-21T05:07:14;13.70;1.00
435;DHT22;204;48.942;9.256;2022-08-21T05:09:41;13.80;1.00
435;DHT22;204;48.942;9.256;2022-08-21T05:12:09;13.90;1.00
435;DHT22;204;48.942;9.256;2022-08-21T05:14:35;14.00;1.00
435;DHT22;204;48.942;9.256;2022-08-21T05:17:01;14.20;1.00
435;DHT22;204;48.942;9.256;2022-08-21T05:19:27;14.30;1.00
435;DHT22;204;48.942;9.256;2022-08-21T05:21:53;14.50;1.00
435;DHT22;204;48.942;9.256;2022-08-21T05:24:19;14.60;1.00
435;DHT22;204;48.942;9.256;2022-08-21T05:26:45;14.80;1.00
435;DHT22;204;48.942;9.256;2022-08-21T05:29:11;15.00;1.00
435;DHT22;204;48.942;9.256;2022-08-21T05:31:37;15.10;1.00
435;DHT22;204;48.942;9.256;2022-08-21T05:34:03;15.30;1.00
435;DHT22;204;48.942;9.256;2022-08-21T05:36:29;15.40;1.00
435;DHT22;204;48.942;9.256;2022-08-21T05:38:55;15.60;1.00
435;DHT22;204;48.942;9.256;2022-08-21T05:41:21;15.70;1.00
435;DHT22;204;48.942;9.256;2022-08-21T05:43:47;15.80;1.00
435;DHT22;204;48.942;9.256;2022-08-21T05:46:12;16.00;1.00
435;DHT22;204;48.942;9.256;2022-08-21T05:48:38;16.20;1.00
435;DHT22;204;48.942;9.256;2022-08-21T05:51:12;16.40;1.00
435;DHT22;204;48.942;9.256;2022-08-21T05:53:39;16.60;1.00
435;DHT22;204;48.942;9.256;2022-08-21T05:56:05;16.80;1.00
435;DHT22;204;48.942;9.256;2022-08-21T05:58:32;17.00;1.00
435;DHT22;204;48.942;9.256;2022-08-21T06:00:59;17.30;1.00
435;DHT22;204;48.942;9.256;2022-08-21T06:03:28;17.50;1.00
435;DHT22;204;48.942;9.256;2022-08-21T06:05:54;17.70;1.00
435;DHT22;204;48.942;9.256;2022-08-21T06:08:21;17.90;1.00
435;DHT22;204;48.942;9.256;2022-08-21T06:10:48;18.00;1.00
435;DHT22;204;48.942;9.256;2022-08-21T06:13:16;18.10;1.00
435;DHT22;204;48.942;9.256;2022-08-21T06:15:42;18.10;1.00
435;DHT22;204;48.942;9.256;2022-08-21T06:18:08;18.20;1.00
435;DHT22;204;48.942;9.256;2022-08-21T06:20:34;18.20;1.00
435;DHT22;204;48.942;9.256;2022-08-21T06:23:00;18.30;1.00
435;DHT22;204;48.942;9.256;2022-08-21T06:25:26;18.40;1.00
435;DHT22;204;48.942;9.256;2022-08-21T06:27:52;18.60;1.00
435;DHT22;204;48.942;9.256;2022-08-21T06:30:18;18.70;1.00
435;DHT22;204;48.942;9.256;2022-08-21T06:32:44;18.90;1.00
435;DHT22;204;48.942;9.256;2022-08-21T06:35:10;19.00;1.00
435;DHT22;204;48.942;9.256;2022-08-21T06:37:36;19.10;1.00
435;DHT22;204;48.942;9.256;2022-08-21T06:40:04;19.30;1.00
435;DHT22;204;48.942;9.256;2022-08-21T06:42:29;19.50;1.00
435;DHT22;204;48.942;9.256;2022-08-21T06:44:57;19.60;1.00
435;DHT22;204;48.942;9.256;2022-08-21T06:47:22;19.70;1.00
435;DHT22;204;48.942;9.256;2022-08-21T06:49:48;19.80;1.00
435;DHT22;204;48.942;9.256;2022-08-21T06:52:14;20.00;1.00
435;DHT22;204;48.942;9.256;2022-08-21T06:54:40;20.10;1.00
435;DHT22;204;48.942;9.256;2022-08-21T06:57:06;20.20;1.00
435;DHT22;204;48.942;9.256;2022-08-21T06:59:32;20.40;1.00
435;DHT22;204;48.942;9.256;2022-08-21T07:01:58;20.50;1.00
435;DHT22;204;48.942;9.256;2022-08-21T07:04:24;20.60;1.00
435;DHT22;204;48.942;9.256;2022-08-21T07:06:50;20.70;1.00
435;DHT22;204;48.942;9.256;2022-08-21T07:09:16;20.90;1.00
435;DHT22;204;48.942;9.256;2022-08-21T07:11:41;21.00;1.00
435;DHT22;204;48.942;9.256;2022-08-21T07:14:07;21.10;1.00
435;DHT22;204;48.942;9.256;2022-08-21T07:16:33;21.30;1.00
435;DHT22;204;48.942;9.256;2022-08-21T07:18:58;21.50;1.00
435;DHT22;204;48.942;9.256;2022-08-21T07:21:24;21.60;1.00
435;DHT22;204;48.942;9.256;2022-08-21T07:23:51;21.70;1.00
435;DHT22;204;48.942;9.256;2022-08-21T07:26:19;21.90;1.00
435;DHT22;204;48.942;9.256;2022-08-21T07:28:49;22.00;1.00
435;DHT22;204;48.942;9.256;2022-08-21T07:31:17;22.10;1.00
435;DHT22;204;48.942;9.256;2022-08-21T07:33:44;22.20;1.00
435;DHT22;204;48.942;9.256;2022-08-21T07:36:10;22.20;1.00
435;DHT22;204;48.942;9.256;2022-08-21T07:38:36;22.30;1.00
435;DHT22;204;48.942;9.256;2022-08-21T07:41:09;22.30;1.00
435;DHT22;204;48.942;9.256;2022-08-21T07:43:36;22.30;1.00
435;DHT22;204;48.942;9.256;2022-08-21T07:46:02;22.30;1.00
435;DHT22;204;48.942;9.256;2022-08-21T07:48:28;22.40;1.00
435;DHT22;204;48.942;9.256;2022-08-21T07:50:54;22.50;1.00
435;DHT22;204;48.942;9.256;2022-08-21T07:53:21;22.70;1.00
435;DHT22;204;48.942;9.256;2022-08-21T07:55:46;22.80;1.00
435;DHT22;204;48.942;9.256;2022-08-21T07:58:12;22.80;1.00
435;DHT22;204;48.942;9.256;2022-08-21T08:00:39;23.00;1.00
435;DHT22;204;48.942;9.256;2022-08-21T08:03:05;23.20;1.00
435;DHT22;204;48.942;9.256;2022-08-21T08:05:31;23.30;1.00
435;DHT22;204;48.942;9.256;2022-08-21T08:07:57;23.50;1.00
435;DHT22;204;48.942;9.256;2022-08-21T08:10:24;23.60;1.00
435;DHT22;204;48.942;9.256;2022-08-21T08:12:50;23.70;1.00
435;DHT22;204;48.942;9.256;2022-08-21T08:15:23;23.70;1.00
435;DHT22;204;48.942;9.256;2022-08-21T08:17:49;23.80;1.00
435;DHT22;204;48.942;9.256;2022-08-21T08:20:16;23.90;1.00
435;DHT22;204;48.942;9.256;2022-08-21T08:22:43;24.10;1.00
435;DHT22;204;48.942;9.256;2022-08-21T08:25:11;24.20;1.00
435;DHT22;204;48.942;9.256;2022-08-21T08:27:37;24.20;1.00
435;DHT22;204;48.942;9.256;2022-08-21T08:30:04;24.30;1.00
435;DHT22;204;48.942;9.256;2022-08-21T08:32:30;24.40;1.00
435;DHT22;204;48.942;9.256;2022-08-21T08:34:56;24.50;1.00
435;DHT22;204;48.942;9.256;2022-08-21T08:37:22;24.60;1.00
435;DHT22;204;48.942;9.256;2022-08-21T08:39:47;24.70;1.00
435;DHT22;204;48.942;9.256;2022-08-21T08:42:18;24.70;1.00
435;DHT22;204;48.942;9.256;2022-08-21T08:44:46;24.80;1.00
435;DHT22;204;48.942;9.256;2022-08-21T08:47:14;25.00;1.00
435;DHT22;204;48.942;9.256;2022-08-21T08:49:49;25.10;1.00
435;DHT22;204;48.942;9.256;2022-08-21T08:52:22;25.30;1.00
435;DHT22;204;48.942;9.256;2022-08-21T08:57:29;25.50;1.00
435;DHT22;204;48.942;9.256;2022-08-21T08:59:58;25.60;1.00
435;DHT22;204;48.942;9.256;2022-08-21T09:02:24;25.70;1.00
435;DHT22;204;48.942;9.256;2022-08-21T09:04:51;25.90;1.00
435;DHT22;204;48.942;9.256;2022-08-21T09:18:20;26.30;1.00
435;DHT22;204;48.942;9.256;2022-08-21T09:24:00;26.30;1.00
435;DHT22;204;48.942;9.256;2022-08-21T09:26:33;26.30;1.00
435;DHT22;204;48.942;9.256;2022-08-21T09:29:01;26.40;1.00
435;DHT22;204;48.942;9.256;2022-08-21T09:31:33;26.40;1.00
435;DHT22;204;48.942;9.256;2022-08-21T09:34:00;26.40;1.00
435;DHT22;204;48.942;9.256;2022-08-21T09:36:43;26.40;1.00
435;DHT22;204;48.942;9.256;2022-08-21T09:39:11;26.40;1.00
435;DHT22;204;48.942;9.256;2022-08-21T09:41:38;26.40;1.00
435;DHT22;204;48.942;9.256;2022-08-21T09:44:06;26.40;1.00
435;DHT22;204;48.942;9.256;2022-08-21T09:46:33;26.50;1.00
435;DHT22;204;48.942;9.256;2022-08-21T09:49:01;26.60;1.00
435;DHT22;204;48.942;9.256;2022-08-21T09:51:35;26.80;1.00
435;DHT22;204;48.942;9.256;2022-08-21T09:56:39;27.00;1.00
435;DHT22;204;48.942;9.256;2022-08-21T09:59:33;27.10;1.00
435;DHT22;204;48.942;9.256;2022-08-21T10:02:01;27.20;1.00
435;DHT22;204;48.942;9.256;2022-08-21T10:04:31;27.20;1.00
435;DHT22;204;48.942;9.256;2022-08-21T10:07:08;27.20;1.00
435;DHT22;204;48.942;9.256;2022-08-21T10:09:34;27.30;1.00
435;DHT22;204;48.942;9.256;2022-08-21T10:12:29;27.20;1.00
435;DHT22;204;48.942;9.256;2022-08-21T10:20:25;27.40;1.00
435;DHT22;204;48.942;9.256;2022-08-21T10:25:57;27.40;1.00
435;DHT22;204;48.942;9.256;2022-08-21T10:28:51;27.50;1.00
435;DHT22;204;48.942;9.256;2022-08-21T10:31:46;27.60;1.00
435;DHT22;204;48.942;9.256;2022-08-21T10:34:19;27.70;1.00
435;DHT22;204;48.942;9.256;2022-08-21T10:43:02;27.50;1.00
435;DHT22;204;48.942;9.256;2022-08-21T10:48:08;27.30;1.00
435;DHT22;204;48.942;9.256;2022-08-21T10:50:45;27.30;1.00
435;DHT22;204;48.942;9.256;2022-08-21T10:56:01;27.50;1.00
435;DHT22;204;48.942;9.256;2022-08-21T10:58:33;27.70;1.00
435;DHT22;204;48.942;9.256;2022-08-21T11:01:17;27.80;1.00
435;DHT22;204;48.942;9.256;2022-08-21T11:03:46;27.90;1.00
435;DHT22;204;48.942;9.256;2022-08-21T11:06:25;28.00;99.90
435;DHT22;204;48.942;9.256;2022-08-21T11:09:16;28.10;99.90
435;DHT22;204;48.942;9.256;2022-08-21T11:17:18;28.50;99.90
435;DHT22;204;48.942;9.256;2022-08-21T11:22:28;28.60;99.90
435;DHT22;204;48.942;9.256;2022-08-21T11:27:36;28.60;99.90
435;DHT22;204;48.942;9.256;2022-08-21T11:30:06;28.60;99.90
435;DHT22;204;48.942;9.256;2022-08-21T11:35:32;28.70;99.90
435;DHT22;204;48.942;9.256;2022-08-21T11:43:41;28.80;99.90
435;DHT22;204;48.942;9.256;2022-08-21T11:51:33;28.80;99.90
435;DHT22;204;48.942;9.256;2022-08-21T11:54:14;29.00;99.90
435;DHT22;204;48.942;9.256;2022-08-21T11:56:46;29.00;99.90
435;DHT22;204;48.942;9.256;2022-08-21T11:59:20;29.10;99.90
435;DHT22;204;48.942;9.256;2022-08-21T12:01:48;29.10;99.90
435;DHT22;204;48.942;9.256;2022-08-21T12:04:26;29.10;99.90
435;DHT22;204;48.942;9.256;2022-08-21T12:06:53;29.10;99.90
435;DHT22;204;48.942;9.256;2022-08-21T12:17:07;29.00;99.90
435;DHT22;204;48.942;9.256;2022-08-21T12:19:33;29.00;99.90
435;DHT22;204;48.942;9.256;2022-08-21T12:27:41;28.70;99.90
435;DHT22;204;48.942;9.256;2022-08-21T12:33:01;28.50;99.90
435;DHT22;204;48.942;9.256;2022-08-21T12:35:37;28.30;99.90
435;DHT22;204;48.942;9.256;2022-08-21T12:38:45;28.10;99.90
435;DHT22;204;48.942;9.256;2022-08-21T12:41:16;28.00;99.90
435;DHT22;204;48.942;9.256;2022-08-21T12:43:51;27.90;99.90
435;DHT22;204;48.942;9.256;2022-08-21T12:46:22;28.00;99.90
435;DHT22;204;48.942;9.256;2022-08-21T12:48:58;28.10;99.90
435;DHT22;204;48.942;9.256;2022-08-21T12:52:00;28.20;99.90
435;DHT22;204;48.942;9.256;2022-08-21T12:54:25;28.20;99.90
435;DHT22;204;48.942;9.256;2022-08-21T12:56:59;28.40;99.90
435;DHT22;204;48.942;9.256;2022-08-21T12:59:25;28.40;99.90
435;DHT22;204;48.942;9.256;2022-08-21T13:01:51;28.40;99.90
435;DHT22;204;48.942;9.256;2022-08-21T13:04:32;28.50;99.90
435;DHT22;204;48.942;9.256;2022-08-21T13:06:59;28.50;99.90
435;DHT22;204;48.942;9.256;2022-08-21T13:09:29;28.50;99.90
435;DHT22;204;48.942;9.256;2022-08-21T13:11:56;28.50;99.90
435;DHT22;204;48.942;9.256;2022-08-21T13:16:55;28.50;99.90
435;DHT22;204;48.942;9.256;2022-08-21T13:19:22;28.50;99.90
435;DHT22;204;48.942;9.256;2022-08-21T13:21:48;28.40;99.90
435;DHT22;204;48.942;9.256;2022-08-21T13:26:45;28.40;99.90
435;DHT22;204;48.942;9.256;2022-08-21T13:29:15;28.50;99.90
435;DHT22;204;48.942;9.256;2022-08-21T13:31:53;28.50;99.90
435;DHT22;204;48.942;9.256;2022-08-21T13:34:21;28.60;99.90
435;DHT22;204;48.942;9.256;2022-08-21T13:36:52;28.70;99.90
435;DHT22;204;48.942;9.256;2022-08-21T13:39:20;28.80;99.90
435;DHT22;204;48.942;9.256;2022-08-21T13:41:49;28.90;99.90
435;DHT22;204;48.942;9.256;2022-08-21T13:44:35;28.80;99.90
435;DHT22;204;48.942;9.256;2022-08-21T13:47:03;28.90;99.90
435;DHT22;204;48.942;9.256;2022-08-21T13:49:36;29.00;99.90
435;DHT22;204;48.942;9.256;2022-08-21T13:52:03;28.90;99.90
435;DHT22;204;48.942;9.256;2022-08-21T13:54:35;29.00;99.90
435;DHT22;204;48.942;9.256;2022-08-21T13:57:01;29.10;99.90
435;DHT22;204;48.942;9.256;2022-08-21T13:59:32;29.20;99.90
435;DHT22;204;48.942;9.256;2022-08-21T14:04:37;29.40;99.90
435;DHT22;204;48.942;9.256;2022-08-21T14:07:15;29.40;99.90
435;DHT22;204;48.942;9.256;2022-08-21T14:09:45;29.50;99.90
435;DHT22;204;48.942;9.256;2022-08-21T14:12:16;29.60;99.90
435;DHT22;204;48.942;9.256;2022-08-21T14:14:42;29.60;99.90
435;DHT22;204;48.942;9.256;2022-08-21T14:17:27;29.60;99.90
435;DHT22;204;48.942;9.256;2022-08-21T14:19:52;29.60;99.90
435;DHT22;204;48.942;9.256;2022-08-21T14:24:49;29.50;99.90
435;DHT22;204;48.942;9.256;2022-08-21T14:27:17;29.40;99.90
435;DHT22;204;48.942;9.256;2022-08-21T14:29:44;29.20;99.90
435;DHT22;204;48.942;9.256;2022-08-21T14:32:17;29.10;99.90
435;DHT22;204;48.942;9.256;2022-08-21T14:34:44;29.10;99.90
435;DHT22;204;48.942;9.256;2022-08-21T14:37:10;29.10;99.90
435;DHT22;204;48.942;9.256;2022-08-21T14:39:36;29.20;99.90
435;DHT22;204;48.942;9.256;2022-08-21T14:42:01;29.10;99.90
435;DHT22;204;48.942;9.256;2022-08-21T14:44:27;29.00;99.90
435;DHT22;204;48.942;9.256;2022-08-21T14:46:53;28.90;99.90
435;DHT22;204;48.942;9.256;2022-08-21T14:49:19;28.90;99.90
435;DHT22;204;48.942;9.256;2022-08-21T14:51:44;28.80;99.90
435;DHT22;204;48.942;9.256;2022-08-21T14:54:10;28.60;99.90
435;DHT22;204;48.942;9.256;2022-08-21T14:56:36;28.50;99.90
435;DHT22;204;48.942;9.256;2022-08-21T14:59:07;28.40;99.90
435;DHT22;204;48.942;9.256;2022-08-21T15:01:35;28.30;99.90
435;DHT22;204;48.942;9.256;2022-08-21T15:04:01;28.30;99.90
435;DHT22;204;48.942;9.256;2022-08-21T15:06:27;28.30;99.90
435;DHT22;204;48.942;9.256;2022-08-21T15:08:52;28.20;99.90
435;DHT22;204;48.942;9.256;2022-08-21T15:11:20;28.20;99.90
435;DHT22;204;48.942;9.256;2022-08-21T15:13:47;28.30;99.90
435;DHT22;204;48.942;9.256;2022-08-21T15:16:17;28.40;99.90
435;DHT22;204;48.942;9.256;2022-08-21T15:18:42;28.30;99.90
435;DHT22;204;48.942;9.256;2022-08-21T15:21:08;28.30;99.90
435;DHT22;204;48.942;9.256;2022-08-21T15:23:34;28.20;99.90
435;DHT22;204;48.942;9.256;2022-08-21T15:26:00;28.30;99.90
435;DHT22;204;48.942;9.256;2022-08-21T15:28:26;28.30;99.90
435;DHT22;204;48.942;9.256;2022-08-21T15:30:52;28.30;99.90
435;DHT22;204;48.942;9.256;2022-08-21T15:33:18;28.30;99.90
435;DHT22;204;48.942;9.256;2022-08-21T15:35:44;28.30;99.90
435;DHT22;204;48.942;9.256;2022-08-21T15:38:12;28.30;99.90
435;DHT22;204;48.942;9.256;2022-08-21T15:40:38;28.30;99.90
435;DHT22;204;48.942;9.256;2022-08-21T15:43:05;28.30;99.90
435;DHT22;204;48.942;9.256;2022-08-21T15:45:32;28.30;99.90
435;DHT22;204;48.942;9.256;2022-08-21T15:47:58;28.20;99.90
435;DHT22;204;48.942;9.256;2022-08-21T15:50:25;28.10;99.90
435;DHT22;204;48.942;9.256;2022-08-21T15:52:51;28.10;99.90
435;DHT22;204;48.942;9.256;2022-08-21T15:55:17;28.10;99.90
435;DHT22;204;48.942;9.256;2022-08-21T15:57:45;28.10;99.90
435;DHT22;204;48.942;9.256;2022-08-21T16:00:21;28.10;99.90
435;DHT22;204;48.942;9.256;2022-08-21T16:02:53;28.20;99.90
435;DHT22;204;48.942;9.256;2022-08-21T16:05:20;28.10;99.90
435;DHT22;204;48.942;9.256;2022-08-21T16:07:48;28.00;99.90
435;DHT22;204;48.942;9.256;2022-08-21T16:10:16;28.00;99.90
435;DHT22;204;48.942;9.256;2022-08-21T16:12:46;27.90;99.90
435;DHT22;204;48.942;9.256;2022-08-21T16:15:14;27.90;99.90
435;DHT22;204;48.942;9.256;2022-08-21T16:17:42;27.90;99.90
435;DHT22;204;48.942;9.256;2022-08-21T16:20:14;27.90;99.90
435;DHT22;204;48.942;9.256;2022-08-21T16:22:39;27.90;99.90
435;DHT22;204;48.942;9.256;2022-08-21T16:25:06;27.70;99.90
435;DHT22;204;48.942;9.256;2022-08-21T16:27:32;27.60;99.90
435;DHT22;204;48.942;9.256;2022-08-21T16:29:59;27.60;99.90
435;DHT22;204;48.942;9.256;2022-08-21T16:32:25;27.50;99.90
435;DHT22;204;48.942;9.256;2022-08-21T16:34:51;27.50;99.90
435;DHT22;204;48.942;9.256;2022-08-21T16:37:17;27.40;99.90
435;DHT22;204;48.942;9.256;2022-08-21T16:39:43;27.40;99.90
435;DHT22;204;48.942;9.256;2022-08-21T16:42:12;27.30;99.90
435;DHT22;204;48.942;9.256;2022-08-21T16:44:38;27.20;99.90
435;DHT22;204;48.942;9.256;2022-08-21T16:47:04;27.10;99.90
435;DHT22;204;48.942;9.256;2022-08-21T16:49:29;27.10;99.90
435;DHT22;204;48.942;9.256;2022-08-21T16:51:56;27.00;99.90
435;DHT22;204;48.942;9.256;2022-08-21T16:54:22;27.10;99.90
435;DHT22;204;48.942;9.256;2022-08-21T16:56:48;27.10;99.90
435;DHT22;204;48.942;9.256;2022-08-21T16:59:14;27.00;99.90
435;DHT22;204;48.942;9.256;2022-08-21T17:01:40;27.00;99.90
435;DHT22;204;48.942;9.256;2022-08-21T17:04:06;27.00;99.90
435;DHT22;204;48.942;9.256;2022-08-21T17:06:32;26.90;99.90
435;DHT22;204;48.942;9.256;2022-08-21T17:08:58;26.90;99.90
435;DHT22;204;48.942;9.256;2022-08-21T17:11:30;26.90;99.90
435;DHT22;204;48.942;9.256;2022-08-21T17:13:57;26.80;99.90
435;DHT22;204;48.942;9.256;2022-08-21T17:16:24;26.80;99.90
435;DHT22;204;48.942;9.256;2022-08-21T17:18:50;26.70;99.90
435;DHT22;204;48.942;9.256;2022-08-21T17:21:15;26.70;99.90
435;DHT22;204;48.942;9.256;2022-08-21T17:23:41;26.70;99.90
435;DHT22;204;48.942;9.256;2022-08-21T17:26:07;26.70;99.90
435;DHT22;204;48.942;9.256;2022-08-21T17:28:34;26.70;99.90
435;DHT22;204;48.942;9.256;2022-08-21T17:31:01;26.60;99.90
435;DHT22;204;48.942;9.256;2022-08-21T17:33:31;26.60;99.90
435;DHT22;204;48.942;9.256;2022-08-21T17:35:59;26.60;99.90
435;DHT22;204;48.942;9.256;2022-08-21T17:38:26;26.50;99.90
435;DHT22;204;48.942;9.256;2022-08-21T17:40:51;26.40;99.90
435;DHT22;204;48.942;9.256;2022-08-21T17:43:17;26.40;99.90
435;DHT22;204;48.942;9.256;2022-08-21T17:45:43;26.40;99.90
435;DHT22;204;48.942;9.256;2022-08-21T17:48:09;26.30;99.90
435;DHT22;204;48.942;9.256;2022-08-21T17:50:36;26.20;99.90
435;DHT22;204;48.942;9.256;2022-08-21T17:53:02;26.10;99.90
435;DHT22;204;48.942;9.256;2022-08-21T17:55:28;26.00;99.90
435;DHT22;204;48.942;9.256;2022-08-21T17:57:55;25.90;99.90
435;DHT22;204;48.942;9.256;2022-08-21T18:00:22;25.80;99.90
435;DHT22;204;48.942;9.256;2022-08-21T18:02:59;25.70;99.90
435;DHT22;204;48.942;9.256;2022-08-21T18:05:25;25.50;99.90
435;DHT22;204;48.942;9.256;2022-08-21T18:07:50;25.40;99.90
435;DHT22;204;48.942;9.256;2022-08-21T18:10:16;25.20;99.90
435;DHT22;204;48.942;9.256;2022-08-21T18:12:43;25.10;99.90
435;DHT22;204;48.942;9.256;2022-08-21T18:15:12;25.00;99.90
435;DHT22;204;48.942;9.256;2022-08-21T18:17:40;24.80;99.90
435;DHT22;204;48.942;9.256;2022-08-21T18:20:06;24.70;99.90
435;DHT22;204;48.942;9.256;2022-08-21T18:22:32;24.60;99.90